Los Angeles, California
Traffic Map
Current Weather Conditions
Los Angeles, California
Clear
Clear
58°
Feels Like: 58°
Wind Chill: 58° Ceiling: Unl
Heat Index: 58° Visibility: 8mi
Dew Point: 48° Wind: 3mph
Humidity: 70% Direction: 80° (E)
Pressure: 30.15in Gusts: 0mph
Raw Report DataKCQT 210447Z AUTO 08003KT 8SM CLR 14/09 A3015 RMK AO2 SLP208 T01440089
Traffic Incident Summary
Active as of:
Severity:
Category:
InformationThere was an issue retrieving the traffic information for this location. Please try a different location or try again shortly.
Advertisements
Track Severe Weather on mobile